Time,TemperatureF,DewpointF,PressureIn,WindDirection,WindDirectionDegrees,WindSpeedMPH,WindSpeedGustMPH,Humidity,HourlyPrecipIn,Conditions,Clouds,dailyrainin,SolarRadiationWatts/m^2,SoftwareType,DateUTC
2013-07-08 00:01:00,63.0,60.0,-100.00,NW,315,3.0,9.0,91,0.00,,,0.03,0.000000,,2013-07-08 06:01:00,
2013-07-08 00:11:00,63.0,60.0,-100.00,NW,315,3.0,9.0,91,0.00,,,0.03,0.000000,,2013-07-08 06:11:00,
2013-07-08 00:22:00,63.0,60.0,-100.00,NW,315,3.0,9.0,91,0.00,,,0.03,0.000000,,2013-07-08 06:22:00,
2013-07-08 00:33:00,63.0,60.0,-100.00,NW,315,3.0,9.0,91,0.00,,,0.03,0.000000,,2013-07-08 06:33:00,
2013-07-08 01:02:00,67.0,60.0,-100.00,NNW,345,6.0,17.0,77,0.00,,,0.03,0.000000,,2013-07-08 07:02:00,
2013-07-08 01:12:00,67.0,60.0,-100.00,NNW,345,6.0,17.0,77,0.00,,,0.03,0.000000,,2013-07-08 07:12:00,
2013-07-08 01:22:00,67.0,60.0,-100.00,NNW,345,6.0,17.0,77,0.00,,,0.03,0.000000,,2013-07-08 07:22:00,
2013-07-08 01:34:00,67.0,60.0,-100.00,NNW,345,6.0,17.0,77,0.00,,,0.03,0.000000,,2013-07-08 07:34:00,
2013-07-08 02:02:00,66.0,56.0,-100.00,NNE,28,5.0,14.0,71,0.00,,,0.03,0.000000,,2013-07-08 08:02:00,
2013-07-08 02:12:00,66.0,56.0,-100.00,NNE,28,5.0,14.0,71,0.00,,,0.03,0.000000,,2013-07-08 08:12:00,
2013-07-08 02:22:00,66.0,56.0,-100.00,NNE,28,5.0,14.0,71,0.00,,,0.03,0.000000,,2013-07-08 08:22:00,
2013-07-08 02:33:00,66.0,56.0,-100.00,NNE,28,5.0,14.0,71,0.00,,,0.03,0.000000,,2013-07-08 08:33:00,
2013-07-08 03:01:00,65.0,58.0,-100.00,North,11,6.0,17.0,77,0.00,,,0.03,0.000000,,2013-07-08 09:01:00,
2013-07-08 03:11:00,65.0,58.0,-100.00,North,11,6.0,17.0,77,0.00,,,0.03,0.000000,,2013-07-08 09:11:00,
2013-07-08 03:22:00,65.0,58.0,-100.00,North,11,6.0,17.0,77,0.00,,,0.03,0.000000,,2013-07-08 09:22:00,
2013-07-08 03:34:00,65.0,58.0,-100.00,North,11,6.0,17.0,77,0.00,,,0.03,0.000000,,2013-07-08 09:34:00,
2013-07-08 04:02:00,59.0,57.0,-100.00,North,8,8.0,19.0,94,0.97,,,1.00,1.000000,,2013-07-08 10:02:00,
2013-07-08 04:11:00,59.0,57.0,-100.00,North,8,8.0,19.0,94,0.97,,,1.00,1.000000,,2013-07-08 10:11:00,
2013-07-08 04:22:00,59.0,57.0,-100.00,North,8,8.0,19.0,94,0.97,,,1.00,1.000000,,2013-07-08 10:22:00,
2013-07-08 04:34:00,59.0,57.0,-100.00,North,8,8.0,19.0,94,0.97,,,1.00,1.000000,,2013-07-08 10:34:00,
2013-07-08 05:02:00,57.0,55.0,-100.00,NE,41,5.0,18.0,94,0.42,,,1.42,9.000000,,2013-07-08 11:02:00,
2013-07-08 05:11:00,57.0,55.0,-100.00,NE,41,5.0,18.0,94,0.42,,,1.42,9.000000,,2013-07-08 11:11:00,
2013-07-08 05:22:00,57.0,55.0,-100.00,NE,41,5.0,18.0,94,0.42,,,1.42,9.000000,,2013-07-08 11:22:00,
2013-07-08 05:33:00,57.0,55.0,-100.00,NE,41,5.0,18.0,94,0.42,,,1.42,9.000000,,2013-07-08 11:33:00,
2013-07-08 06:01:00,58.0,56.0,-100.00,NNW,336,1.0,12.0,94,0.00,,,1.42,0.000000,,2013-07-08 12:01:00,
2013-07-08 06:11:00,58.0,56.0,-100.00,NNW,336,1.0,12.0,94,0.00,,,1.42,0.000000,,2013-07-08 12:11:00,
2013-07-08 06:22:00,58.0,56.0,-100.00,NNW,336,1.0,12.0,94,0.00,,,1.42,0.000000,,2013-07-08 12:22:00,
2013-07-08 06:34:00,58.0,56.0,-100.00,NNW,336,1.0,12.0,94,0.00,,,1.42,0.000000,,2013-07-08 12:34:00,
2013-07-08 07:02:00,60.0,59.0,-100.00,WSW,252,2.0,9.0,95,0.00,,,1.42,0.000000,,2013-07-08 13:02:00,
2013-07-08 07:11:00,60.0,59.0,-100.00,WSW,252,2.0,9.0,95,0.00,,,1.42,0.000000,,2013-07-08 13:11:00,
2013-07-08 07:22:00,60.0,59.0,-100.00,WSW,252,2.0,9.0,95,0.00,,,1.42,0.000000,,2013-07-08 13:22:00,
2013-07-08 07:33:00,60.0,59.0,-100.00,WSW,252,2.0,9.0,95,0.00,,,1.42,0.000000,,2013-07-08 13:33:00,
2013-07-08 08:02:00,61.0,55.0,-100.00,NNW,334,4.0,14.0,81,0.10,,,1.52,10.000000,,2013-07-08 14:02:00,
2013-07-08 08:12:00,61.0,55.0,-100.00,NNW,334,4.0,14.0,81,0.10,,,1.52,10.000000,,2013-07-08 14:12:00,
2013-07-08 08:22:00,61.0,55.0,-100.00,NNW,334,4.0,14.0,81,0.10,,,1.52,10.000000,,2013-07-08 14:22:00,
2013-07-08 08:34:00,61.0,55.0,-100.00,NNW,334,4.0,14.0,81,0.10,,,1.52,10.000000,,2013-07-08 14:34:00,
2013-07-08 09:02:00,60.0,52.0,-100.00,NNW,332,4.0,9.0,76,0.02,,,1.54,14.000000,,2013-07-08 15:02:00,
2013-07-08 09:11:00,60.0,52.0,-100.00,NNW,332,4.0,9.0,76,0.02,,,1.54,14.000000,,2013-07-08 15:11:00,
2013-07-08 09:22:00,60.0,52.0,-100.00,NNW,332,4.0,9.0,76,0.02,,,1.54,14.000000,,2013-07-08 15:22:00,
2013-07-08 09:33:00,60.0,52.0,-100.00,NNW,332,4.0,9.0,76,0.02,,,1.54,14.000000,,2013-07-08 15:33:00,
2013-07-08 10:01:00,66.0,54.0,-100.00,North,350,2.0,7.0,66,0.00,,,1.54,174.000000,,2013-07-08 16:01:00,
2013-07-08 10:11:00,66.0,54.0,-100.00,North,350,2.0,7.0,66,0.00,,,1.54,174.000000,,2013-07-08 16:11:00,
2013-07-08 10:22:00,66.0,54.0,-100.00,North,350,2.0,7.0,66,0.00,,,1.54,174.000000,,2013-07-08 16:22:00,
2013-07-08 10:33:00,66.0,54.0,-100.00,North,350,2.0,7.0,66,0.00,,,1.54,174.000000,,2013-07-08 16:33:00,
2013-07-08 10:35:00,69.0,56.0,-100.00,NE,47,2.0,8.0,64,0.00,,,1.54,313.000000,,2013-07-08 16:35:00,
2013-07-08 11:07:00,69.0,56.0,-100.00,NE,47,2.0,8.0,64,0.00,,,1.54,313.000000,,2013-07-08 17:07:00,
2013-07-08 11:14:00,69.0,56.0,-100.00,NE,47,2.0,8.0,64,0.00,,,1.54,313.000000,,2013-07-08 17:14:00,
2013-07-08 11:26:00,69.0,56.0,-100.00,NE,47,2.0,8.0,64,0.00,,,1.54,313.000000,,2013-07-08 17:26:00,
2013-07-08 12:35:00,72.0,56.0,-100.00,WNW,293,2.0,12.0,58,0.00,,,1.54,2.000000,,2013-07-08 18:35:00,
2013-07-08 13:19:00,72.0,56.0,-100.00,WNW,293,2.0,12.0,58,0.00,,,1.54,2.000000,,2013-07-08 19:19:00,
2013-07-08 13:30:00,72.0,56.0,-100.00,WNW,293,2.0,12.0,58,0.00,,,1.54,2.000000,,2013-07-08 19:30:00,
2013-07-08 13:35:00,75.0,60.0,-100.00,ESE,112,5.0,11.0,59,0.00,,,1.54,29.000000,,2013-07-08 19:35:00,
2013-07-08 14:11:00,75.0,60.0,-100.00,ESE,112,5.0,11.0,59,0.00,,,1.54,29.000000,,2013-07-08 20:11:00,
2013-07-08 14:19:00,75.0,60.0,-100.00,ESE,112,5.0,11.0,59,0.00,,,1.54,29.000000,,2013-07-08 20:19:00,
2013-07-08 14:35:00,76.0,59.0,-100.00,SE,136,9.0,20.0,55,0.00,,,1.54,0.000000,,2013-07-08 20:35:00,
2013-07-08 15:19:00,76.0,59.0,-100.00,SE,136,9.0,20.0,55,0.00,,,1.54,0.000000,,2013-07-08 21:19:00,
2013-07-08 15:35:00,76.0,59.0,-100.00,SE,139,7.0,16.0,55,0.00,,,1.54,0.000000,,2013-07-08 21:35:00,
2013-07-08 16:21:00,76.0,59.0,-100.00,SE,139,7.0,16.0,55,0.00,,,1.54,0.000000,,2013-07-08 22:21:00,
2013-07-08 16:29:00,76.0,59.0,-100.00,SE,139,7.0,16.0,55,0.00,,,1.54,0.000000,,2013-07-08 22:29:00,
2013-07-08 16:35:00,78.0,62.0,-100.00,SE,137,8.0,16.0,57,0.00,,,1.51,0.000000,,2013-07-08 22:35:00,
2013-07-08 17:18:00,78.0,62.0,-100.00,SE,137,8.0,16.0,57,0.00,,,1.51,0.000000,,2013-07-08 23:18:00,
2013-07-08 17:30:00,78.0,62.0,-100.00,SE,137,8.0,16.0,57,0.00,,,1.51,0.000000,,2013-07-08 23:30:00,
2013-07-08 18:12:00,79.0,63.0,-100.00,SE,144,6.0,16.0,58,0.00,,,1.51,0.000000,,2013-07-09 00:12:00,
2013-07-08 18:30:00,79.0,63.0,-100.00,SE,144,6.0,16.0,58,0.00,,,1.51,0.000000,,2013-07-09 00:30:00,
2013-07-08 18:35:00,77.0,64.0,-100.00,ESE,109,4.0,16.0,65,0.00,,,1.51,0.000000,,2013-07-09 00:35:00,
2013-07-08 19:11:00,77.0,64.0,-100.00,ESE,109,4.0,16.0,65,0.00,,,1.51,0.000000,,2013-07-09 01:11:00,
2013-07-08 19:31:00,77.0,64.0,-100.00,ESE,109,4.0,16.0,65,0.00,,,1.51,0.000000,,2013-07-09 01:31:00,
2013-07-08 19:35:00,78.0,65.0,-100.00,ENE,60,5.0,12.0,65,0.00,,,1.51,0.000000,,2013-07-09 01:35:00,
2013-07-08 20:23:00,-999.0,-99.9,-100.00,ENE,60,5.0,12.0,65,0.00,,,1.51,0.000000,,2013-07-09 02:23:00,
2013-07-08 22:02:00,70.0,54.0,-100.00,NW,325,3.0,12.0,56,0.00,,,1.51,0.000000,,2013-07-09 04:02:00,
2013-07-08 22:11:00,70.0,54.0,-100.00,NW,325,3.0,12.0,56,0.00,,,1.51,0.000000,,2013-07-09 04:11:00,
2013-07-08 22:22:00,70.0,54.0,-100.00,NW,325,3.0,12.0,56,0.00,,,1.51,0.000000,,2013-07-09 04:22:00,
2013-07-08 22:34:00,70.0,54.0,-100.00,NW,325,3.0,12.0,56,0.00,,,1.51,0.000000,,2013-07-09 04:34:00,
2013-07-08 23:02:00,71.0,55.0,-100.00,West,275,8.0,15.0,57,0.00,,,1.51,0.000000,,2013-07-09 05:02:00,
2013-07-08 23:11:00,71.0,55.0,-100.00,West,275,8.0,15.0,57,0.00,,,1.51,0.000000,,2013-07-09 05:11:00,
2013-07-08 23:22:00,71.0,55.0,-100.00,West,275,8.0,15.0,57,0.00,,,1.51,0.000000,,2013-07-09 05:22:00,
2013-07-08 23:33:00,71.0,55.0,-100.00,West,275,8.0,15.0,57,0.00,,,1.51,0.000000,,2013-07-09 05:33:00,